sim
Sign-in with your pilot id or email,
or register
Callsign
Passwort

Schedule Details

Flight Number: DLH1857
Departure: Milan Malpensa Airport (LIMC) at 12:30
Arrival: Munich Airport (EDDM) at 13:40
Route: Lufthansa Passenger Schedule. Enter filed route here before submitting Pirep.

Weather Information
Getting current METAR information for LIMC 220320Z 05005KT 020V080 9999 BKN030 17/16 Q1015 NOSIG
Getting current METAR information for EDDM 220320Z 33001KT 2500 0500S R08L/0650N R08R/0450U BCFG FEW001 08/07 Q1015 BECMG 3000

Schedule Frequency

Route Map